Time;durP1;ratioP1;P1;durP2;ratioP2;P2;SDS_P1;SDS_P2;PMS_P1;PMS_P2;Temp;Humidity;BMP_temperature;BMP_pressure;BME280_temperature;BME280_humidity;BME280_pressure;Samples;Min_cycle;Max_cycle;Signal;HPM_P1;HPM_P2
2021/07/20 00:01:03;;;;;;;11.85;4.72;;;;;;;11.30;82.91;91074.19;5011881;28;20052;-87
2021/07/20 00:03:41;;;;;;;8.95;4.88;;;;;;;11.24;83.54;91070.31;4996538;28;20398;-87
2021/07/20 00:06:21;;;;;;;8.70;4.68;;;;;;;11.18;84.14;91069.75;5011459;28;20104;-87
2021/07/20 00:08:57;;;;;;;7.38;4.72;;;;;;;11.23;84.13;91059.09;5011356;28;20057;-86
2021/07/20 00:11:34;;;;;;;8.93;4.70;;;;;;;11.22;84.49;91064.66;4995722;28;20065;-87
2021/07/20 00:14:08;;;;;;;7.78;4.78;;;;;;;11.18;83.62;91061.19;4996257;28;20048;-86
2021/07/20 00:16:50;;;;;;;7.97;4.40;;;;;;;11.18;82.82;91061.19;4976809;28;20062;-88
2021/07/20 00:19:28;;;;;;;7.03;4.15;;;;;;;11.14;82.53;91060.31;4991859;28;20026;-88
2021/07/20 00:22:06;;;;;;;7.40;4.30;;;;;;;10.96;82.82;91065.75;4991952;28;20044;-87
2021/07/20 00:24:44;;;;;;;6.25;4.15;;;;;;;10.96;83.98;91055.31;4976455;28;20022;-87
2021/07/20 00:27:21;;;;;;;14.48;5.45;;;;;;;10.94;83.99;91057.47;4993049;28;20033;-86
2021/07/20 00:29:52;;;;;;;10.90;5.80;;;;;;;11.00;84.61;91056.19;4977084;28;20034;-88
2021/07/20 00:32:30;;;;;;;8.63;4.47;;;;;;;11.03;83.10;91052.16;4992718;28;20382;-87
2021/07/20 00:35:10;;;;;;;9.23;4.80;;;;;;;10.76;83.42;91056.94;5003591;28;20104;-87
2021/07/20 00:37:45;;;;;;;8.65;4.93;;;;;;;10.81;83.22;91057.78;5011590;28;20049;-87
2021/07/20 00:40:27;;;;;;;7.78;4.95;;;;;;;10.71;83.71;91054.56;5013092;28;20018;-86
2021/07/20 00:43:04;;;;;;;9.38;5.07;;;;;;;10.59;84.45;91051.16;5011596;28;20022;-86
2021/07/20 00:45:41;;;;;;;9.38;5.63;;;;;;;10.56;84.19;91049.94;5012443;28;20025;-86
2021/07/20 00:48:16;;;;;;;9.15;5.40;;;;;;;10.70;84.08;91050.41;4996320;28;20085;-86
2021/07/20 00:50:52;;;;;;;10.63;6.13;;;;;;;10.55;85.80;91050.28;5021119;28;20068;-88
2021/07/20 00:53:26;;;;;;;12.45;6.35;;;;;;;10.64;84.41;91048.34;5039414;28;20034;-88
2021/07/20 00:56:02;;;;;;;8.73;5.75;;;;;;;10.62;83.57;91035.63;5011745;28;20025;-87
2021/07/20 00:58:35;;;;;;;11.02;5.75;;;;;;;10.43;84.33;91048.44;4999247;28;20908;-86
2021/07/20 01:01:17;;;;;;;12.40;5.25;;;;;;;10.57;83.85;91048.13;4999699;28;20037;-87
2021/07/20 01:03:56;;;;;;;9.75;4.93;;;;;;;10.40;84.06;91039.41;5000004;28;20026;-87
2021/07/20 01:06:35;;;;;;;9.82;5.65;;;;;;;10.45;83.99;91049.59;4999277;28;20026;-87
2021/07/20 01:09:17;;;;;;;10.18;6.20;;;;;;;10.33;84.61;91039.19;5016316;28;20021;-86
2021/07/20 01:12:00;;;;;;;12.70;6.90;;;;;;;10.36;85.10;91043.75;5000138;28;20038;-86
2021/07/20 01:14:37;;;;;;;13.27;7.03;;;;;;;10.36;84.27;91048.97;5014759;28;20449;-86
2021/07/20 01:17:16;;;;;;;12.02;6.30;;;;;;;10.32;84.27;91037.66;4999303;28;20038;-86
2021/07/20 01:20:00;;;;;;;13.50;7.10;;;;;;;10.43;84.47;91032.78;5015027;28;20034;-86
2021/07/20 01:22:36;;;;;;;11.43;6.68;;;;;;;10.22;84.82;91030.22;4999678;28;20410;-86
2021/07/20 01:25:16;;;;;;;15.20;7.38;;;;;;;10.43;85.96;91032.78;4999015;28;20085;-87
2021/07/20 01:27:58;;;;;;;13.85;7.35;;;;;;;10.26;85.33;91029.28;4999308;28;20537;-87
2021/07/20 01:30:32;;;;;;;14.68;6.82;;;;;;;10.22;84.73;91025.03;4999297;28;20025;-87
2021/07/20 01:33:01;;;;;;;10.80;6.72;;;;;;;10.33;84.28;91033.22;4999020;28;20021;-87
2021/07/20 01:35:35;;;;;;;13.48;7.75;;;;;;;10.15;84.65;91030.00;5014647;28;20060;-86
2021/07/20 01:38:11;;;;;;;15.15;7.35;;;;;;;10.24;84.72;91028.03;4998684;28;20030;-86
2021/07/20 01:40:46;;;;;;;18.15;8.02;;;;;;;10.10;84.87;91024.97;4999111;28;20042;-86
2021/07/20 01:43:25;;;;;;;16.17;8.05;;;;;;;10.05;84.86;91024.09;4999315;28;20037;-86
2021/07/20 01:45:59;;;;;;;15.98;8.43;;;;;;;10.16;85.34;91018.50;4999431;28;20029;-87
2021/07/20 01:48:36;;;;;;;19.13;10.07;;;;;;;10.12;85.42;91023.59;4998772;28;20022;-86
2021/07/20 01:51:03;;;;;;;19.17;9.20;;;;;;;10.04;84.96;91016.63;4980172;28;20041;-86
2021/07/20 01:53:41;;;;;;;18.70;9.13;;;;;;;9.98;85.48;91013.44;4978618;28;20029;-84
2021/07/20 01:56:18;;;;;;;18.90;10.73;;;;;;;10.06;85.76;91024.84;4979651;28;20410;-87
2021/07/20 01:58:58;;;;;;;21.50;11.30;;;;;;;10.02;85.19;91016.94;4979485;28;20026;-87
2021/07/20 02:01:35;;;;;;;17.48;9.45;;;;;;;10.01;85.63;91020.63;4994391;28;20121;-87
2021/07/20 02:04:25;;;;;;;17.00;8.90;;;;;;;10.07;86.46;91021.19;5008667;28;20093;-87
2021/07/20 02:09:59;;;;;;;17.48;9.07;;;;;;;10.00;84.85;91019.09;5000773;28;20041;-86
2021/07/20 02:12:39;;;;;;;17.77;8.77;;;;;;;10.05;84.31;91023.34;4999241;28;20482;-86
2021/07/20 02:15:18;;;;;;;19.88;10.43;;;;;;;9.96;85.55;91020.06;4999265;28;20125;-86
2021/07/20 02:17:54;;;;;;;21.00;10.63;;;;;;;9.84;85.50;91015.56;4998341;28;20030;-86
2021/07/20 02:20:38;;;;;;;18.10;10.25;;;;;;;9.82;85.47;91010.69;4982746;28;20049;-88
2021/07/20 02:23:16;;;;;;;17.95;10.35;;;;;;;9.85;84.81;91019.69;4999222;28;20069;-86
2021/07/20 02:25:51;;;;;;;21.65;10.98;;;;;;;9.72;85.03;91005.88;4998484;28;20033;-86
2021/07/20 02:28:27;;;;;;;17.65;9.82;;;;;;;9.67;84.72;91010.50;4982454;28;20033;-85
2021/07/20 02:31:00;;;;;;;21.52;11.23;;;;;;;9.61;84.98;91009.19;4997570;28;20494;-87
2021/07/20 02:33:37;;;;;;;22.10;11.20;;;;;;;9.60;85.98;91012.88;5013779;28;20022;-86
2021/07/20 02:36:14;;;;;;;23.90;10.85;;;;;;;9.63;85.65;91007.78;5013778;28;20025;-86
2021/07/20 02:38:48;;;;;;;23.98;11.48;;;;;;;9.65;85.58;91008.25;4999222;28;20029;-86
2021/07/20 02:41:29;;;;;;;22.63;11.95;;;;;;;9.67;86.25;91010.50;4998098;28;20030;-86
2021/07/20 02:44:02;;;;;;;20.65;11.27;;;;;;;9.71;86.81;91008.78;4998777;28;20481;-86
2021/07/20 02:46:38;;;;;;;22.85;11.00;;;;;;;9.69;86.75;91010.97;4997814;28;20038;-86
2021/07/20 02:49:19;;;;;;;20.67;10.90;;;;;;;9.67;86.91;91000.88;5013520;28;20516;-86
2021/07/20 02:51:54;;;;;;;25.13;11.65;;;;;;;9.61;87.25;91011.78;4998216;28;20029;-86
2021/07/20 02:54:33;;;;;;;20.75;11.00;;;;;;;9.66;87.24;91009.75;4997792;28;20038;-86
2021/07/20 02:57:07;;;;;;;20.33;10.30;;;;;;;9.66;87.21;91001.94;4997881;28;20026;-87
2021/07/20 02:59:41;;;;;;;21.15;11.13;;;;;;;9.71;86.91;91006.94;4998354;28;20029;-87
2021/07/20 03:02:17;;;;;;;22.50;10.60;;;;;;;9.81;84.66;91003.19;5013166;28;20073;-86
2021/07/20 03:04:58;;;;;;;19.85;10.70;;;;;;;9.58;85.71;91000.94;4998605;28;20037;-86
2021/07/20 03:07:35;;;;;;;23.33;12.07;;;;;;;9.51;85.79;90995.50;5013069;28;20552;-86
2021/07/20 03:10:15;;;;;;;21.65;11.55;;;;;;;9.53;85.94;90998.53;5013603;28;20037;-87
2021/07/20 03:12:52;;;;;;;20.70;10.10;;;;;;;9.61;85.69;90996.19;4997862;28;20034;-86
2021/07/20 03:15:20;;;;;;;23.92;11.82;;;;;;;9.39;85.92;90995.44;4996164;28;20060;-86
2021/07/20 03:17:55;;;;;;;28.58;13.65;;;;;;;9.40;85.92;91004.00;4989474;23;20043;-86
2021/07/20 03:20:28;;;;;;;22.60;11.68;;;;;;;9.40;85.01;91004.00;4957012;28;20038;-86
2021/07/20 03:23:10;;;;;;;20.70;10.23;;;;;;;9.37;84.35;91004.66;4956970;28;20456;-86
2021/07/20 03:25:42;;;;;;;23.33;11.30;;;;;;;9.33;84.75;91005.28;4938857;28;20031;-85
2021/07/20 03:28:14;;;;;;;23.67;12.18;;;;;;;9.22;86.00;90998.94;4918917;29;20023;-87
2021/07/20 03:30:47;;;;;;;27.92;12.90;;;;;;;9.30;86.37;91005.16;4934064;29;20031;-86
2021/07/20 03:33:21;;;;;;;24.50;12.50;;;;;;;9.15;86.79;90998.69;4934367;29;20019;-85
2021/07/20 03:35:56;;;;;;;28.95;13.23;;;;;;;9.18;86.62;91003.22;4950218;29;20027;-86
2021/07/20 03:38:26;;;;;;;;;;;;;;;9.16;86.04;91009.84;4934398;29;20042;-86
2021/07/20 03:41:00;;;;;;;25.38;12.75;;;;;;;9.15;86.87;91006.47;4933505;29;19919;-86
2021/07/20 03:43:35;;;;;;;25.33;12.70;;;;;;;9.16;86.38;91002.03;4933877;28;20167;-85
2021/07/20 03:46:16;;;;;;;22.38;12.43;;;;;;;9.14;86.49;91001.59;4939819;28;20066;-87
2021/07/20 03:48:54;;;;;;;29.65;12.77;;;;;;;9.12;85.75;91004.50;4937678;29;20027;-87
2021/07/20 03:51:28;;;;;;;26.27;12.90;;;;;;;9.14;86.55;91001.59;4936930;29;20027;-88
2021/07/20 03:54:00;;;;;;;25.73;13.35;;;;;;;9.19;87.71;90998.81;4937471;29;20019;-87
2021/07/20 03:56:35;;;;;;;26.67;13.35;;;;;;;9.20;87.41;91005.53;4921388;29;20038;-87
2021/07/20 03:59:10;;;;;;;25.65;12.82;;;;;;;9.21;87.38;91004.44;4936872;29;20035;-87
2021/07/20 04:01:49;;;;;;;27.40;12.75;;;;;;;9.24;86.86;91004.56;4937635;29;20102;-88
2021/07/20 04:04:23;;;;;;;32.63;14.65;;;;;;;9.25;87.88;91007.94;4937774;29;20032;-87
2021/07/20 04:06:59;;;;;;;28.58;14.77;;;;;;;9.26;87.29;91009.47;4922090;29;20035;-88
2021/07/20 04:09:39;;;;;;;30.40;14.05;;;;;;;9.27;86.54;91008.38;4922216;29;20035;-87
2021/07/20 04:12:19;;;;;;;28.70;14.45;;;;;;;9.32;85.95;91013.38;4922742;29;20470;-86
2021/07/20 04:14:53;;;;;;;27.60;13.13;;;;;;;9.23;85.15;91010.09;4933347;29;20032;-87
2021/07/20 04:17:31;;;;;;;24.77;11.68;;;;;;;9.25;84.99;91013.13;4933316;29;20106;-87
2021/07/20 04:20:13;;;;;;;21.95;11.50;;;;;;;9.29;84.36;91016.63;4918043;29;20036;-88
2021/07/20 04:22:50;;;;;;;22.45;12.27;;;;;;;9.28;84.60;91007.31;4918733;29;20027;-84
2021/07/20 04:25:24;;;;;;;24.70;11.77;;;;;;;9.29;85.08;91008.81;4933407;29;20024;-87
2021/07/20 04:27:59;;;;;;;;;;;;;;;9.34;84.67;91019.03;4922078;29;20416;-88
2021/07/20 04:30:47;;;;;;;18.88;10.80;;;;;;;9.30;84.47;91025.97;4938673;29;20366;-87
2021/07/20 04:33:32;;;;;;;20.83;10.98;;;;;;;9.19;84.66;91015.16;4923071;29;20103;-87
2021/07/20 04:36:04;;;;;;;20.85;10.73;;;;;;;9.29;84.43;91014.00;4937841;29;20031;-87
2021/07/20 04:38:43;;;;;;;19.35;10.65;;;;;;;9.31;84.62;91014.47;4923255;29;20066;-87
2021/07/20 04:41:25;;;;;;;22.42;10.75;;;;;;;9.27;84.73;91016.19;4936282;29;20036;-90
2021/07/20 04:44:06;;;;;;;23.77;12.50;;;;;;;9.26;85.23;91020.63;4910535;29;20036;-87
2021/07/20 04:46:46;;;;;;;27.98;13.77;;;;;;;9.32;85.05;91018.59;4923973;29;20032;-87
2021/07/20 04:49:25;;;;;;;23.08;11.75;;;;;;;9.39;84.36;91012.88;4922516;29;20472;-87
2021/07/20 04:52:00;;;;;;;22.55;11.88;;;;;;;9.51;84.27;91021.50;4937518;29;20035;-88
2021/07/20 04:54:33;;;;;;;30.35;15.63;;;;;;;9.60;85.66;91023.28;4922277;29;20027;-87
2021/07/20 04:57:12;;;;;;;32.15;15.77;;;;;;;9.61;87.15;91025.59;4922148;29;20027;-87
2021/07/20 04:59:48;;;;;;;29.70;15.82;;;;;;;9.74;87.73;91023.78;4959521;29;20083;-90
2021/07/20 05:02:28;;;;;;;34.45;15.85;;;;;;;9.90;87.73;91027.31;4959643;29;20091;-87
2021/07/20 05:05:01;;;;;;;30.73;15.55;;;;;;;9.98;87.56;91029.06;4937187;29;20030;-86
2021/07/20 05:07:41;;;;;;;32.90;17.30;;;;;;;10.05;87.57;91029.31;4922801;29;20412;-88
2021/07/20 05:10:19;;;;;;;27.95;15.05;;;;;;;10.21;87.83;91034.69;4906584;29;20027;-87
2021/07/20 05:12:58;;;;;;;31.60;16.13;;;;;;;10.25;88.22;91032.19;4905991;29;20404;-87
2021/07/20 05:15:34;;;;;;;24.70;13.65;;;;;;;10.32;86.61;91035.06;4921598;29;20093;-86
2021/07/20 05:18:12;;;;;;;27.80;13.60;;;;;;;10.33;86.60;91036.56;4921673;29;20059;-86
2021/07/20 05:20:50;;;;;;;27.85;14.35;;;;;;;10.45;86.73;91044.41;4921507;29;20027;-87
2021/07/20 05:23:22;;;;;;;26.92;14.80;;;;;;;10.52;86.37;91039.41;4936874;29;20046;-86
2021/07/20 05:26:00;;;;;;;27.05;15.00;;;;;;;10.61;86.67;91043.78;4930574;28;20027;-86
2021/07/20 05:28:39;;;;;;;26.27;14.00;;;;;;;10.61;86.16;91035.97;4956076;29;20036;-86
2021/07/20 05:31:15;;;;;;;25.50;14.25;;;;;;;10.71;86.06;91043.38;4940448;29;20027;-86
2021/07/20 05:33:53;;;;;;;26.15;14.00;;;;;;;10.80;86.41;91048.47;4957656;28;20101;-87
2021/07/20 05:36:19;;;;;;;29.85;15.68;;;;;;;10.88;86.85;91037.91;4936179;29;20058;-87
2021/07/20 05:38:46;;;;;;;25.75;14.75;;;;;;;10.98;86.61;91031.50;4951381;28;20055;-86
2021/07/20 05:41:11;;;;;;;27.35;14.65;;;;;;;11.12;86.82;91046.81;4906904;29;20027;-88
2021/07/20 05:43:38;;;;;;;24.63;13.30;;;;;;;11.21;86.35;91042.28;4922354;29;20093;-87
2021/07/20 05:46:05;;;;;;;28.35;14.68;;;;;;;11.26;86.89;91042.03;4937377;28;20415;-87
2021/07/20 05:48:35;;;;;;;25.20;13.98;;;;;;;11.30;87.27;91037.66;4940851;29;20110;-87
2021/07/20 05:51:03;;;;;;;28.83;14.07;;;;;;;11.35;87.00;91045.28;4925520;29;20028;-87
2021/07/20 05:53:33;;;;;;;23.77;13.98;;;;;;;11.47;87.03;91032.22;4941903;29;20407;-87
2021/07/20 05:56:03;;;;;;;29.15;15.75;;;;;;;11.56;86.75;91023.50;4950067;29;20024;-86
2021/07/20 05:58:28;;;;;;;29.83;16.70;;;;;;;11.76;87.09;91032.25;4921361;29;20039;-87
2021/07/20 06:00:55;;;;;;;35.15;17.48;;;;;;;11.87;87.45;91033.31;4921432;29;20031;-87
2021/07/20 06:03:22;;;;;;;34.25;17.55;;;;;;;12.05;87.78;91031.16;4910033;29;20026;-86
2021/07/20 06:05:50;;;;;;;28.85;17.23;;;;;;;12.14;88.19;91029.94;4940341;28;20046;-86
2021/07/20 06:08:17;;;;;;;28.83;16.35;;;;;;;12.32;87.91;91027.78;4939516;28;20031;-86
2021/07/20 06:10:49;;;;;;;28.05;17.25;;;;;;;12.50;87.66;91032.69;4940446;29;20035;-87
2021/07/20 06:13:16;;;;;;;33.25;17.88;;;;;;;12.55;87.93;91040.31;4923342;29;20019;-87
2021/07/20 06:15:48;;;;;;;30.40;18.02;;;;;;;12.71;87.57;91042.91;4938115;29;20043;-87
2021/07/20 06:18:14;;;;;;;26.38;16.48;;;;;;;12.95;86.29;91041.97;4937828;29;20041;-87
2021/07/20 06:20:58;;;;;;;33.70;18.20;;;;;;;12.97;85.60;91034.53;4914962;29;20111;-87
2021/07/20 06:23:28;;;;;;;28.60;16.55;;;;;;;13.08;86.28;91040.81;4906054;29;20031;-88
2021/07/20 06:25:54;;;;;;;29.02;17.17;;;;;;;13.25;86.17;91043.09;4929145;28;20126;-88
2021/07/20 06:28:24;;;;;;;32.83;18.75;;;;;;;13.39;87.02;91043.41;4937652;29;20483;-87
2021/07/20 06:30:52;;;;;;;35.15;20.08;;;;;;;13.69;86.70;91047.38;4932308;29;20031;-87
2021/07/20 06:33:19;;;;;;;35.03;20.58;;;;;;;13.84;86.03;91049.91;4918869;29;20480;-87
2021/07/20 06:35:46;;;;;;;37.28;19.38;;;;;;;14.04;86.30;91039.44;4918558;29;20407;-88
2021/07/20 06:38:14;;;;;;;38.03;21.02;;;;;;;14.18;84.71;91050.19;4918304;29;20110;-87
2021/07/20 06:40:41;;;;;;;35.78;19.58;;;;;;;14.30;84.58;91034.31;4917676;29;20063;-87
2021/07/20 06:43:10;;;;;;;36.53;21.08;;;;;;;14.42;83.37;91045.78;4918384;29;20027;-87
2021/07/20 06:45:38;;;;;;;36.97;20.98;;;;;;;14.53;83.49;91052.00;4918147;29;20031;-87
2021/07/20 06:48:04;;;;;;;37.90;20.67;;;;;;;14.71;82.59;91052.28;4902770;29;20034;-87
2021/07/20 06:50:33;;;;;;;34.58;20.50;;;;;;;14.80;82.25;91055.44;4932078;29;20027;-87
2021/07/20 06:53:02;;;;;;;35.75;19.92;;;;;;;15.02;82.82;91051.31;4952541;29;20035;-87
2021/07/20 06:55:33;;;;;;;32.40;19.15;;;;;;;15.12;82.12;91040.19;4952740;28;20063;-87
2021/07/20 06:58:00;;;;;;;37.45;19.98;;;;;;;15.16;80.34;91051.53;4952985;28;20093;-87
2021/07/20 07:00:31;;;;;;;36.92;20.42;;;;;;;15.25;80.55;91053.88;4954419;29;20487;-87
2021/07/20 07:02:59;;;;;;;35.05;18.65;;;;;;;15.29;79.62;91042.31;4952037;28;21094;-87
2021/07/20 07:05:27;;;;;;;36.03;20.30;;;;;;;15.37;80.05;91055.56;4951262;28;20019;-86
2021/07/20 07:07:53;;;;;;;33.72;19.33;;;;;;;15.43;77.88;91044.41;4936968;29;20035;-87
2021/07/20 07:10:19;;;;;;;39.83;19.77;;;;;;;15.49;80.39;91052.75;4932998;29;20054;-87
2021/07/20 07:12:46;;;;;;;34.53;18.83;;;;;;;15.44;79.17;91039.91;4936513;29;20035;-88
2021/07/20 07:15:12;;;;;;;34.13;19.27;;;;;;;15.64;78.73;91043.94;4920573;29;20023;-87
2021/07/20 07:17:38;;;;;;;33.78;19.75;;;;;;;15.68;78.11;91055.25;4952347;28;20054;-89
2021/07/20 07:20:04;;;;;;;33.35;20.13;;;;;;;15.68;78.18;91055.25;4936738;29;20126;-84
2021/07/20 07:22:31;;;;;;;31.83;18.30;;;;;;;15.75;79.26;91060.63;4952349;28;20019;-86
2021/07/20 07:24:57;;;;;;;32.90;18.70;;;;;;;15.84;77.31;91059.63;4940403;29;20025;-88
2021/07/20 07:27:23;;;;;;;33.78;18.73;;;;;;;16.09;77.59;91058.03;4922272;29;20628;-87
2021/07/20 07:29:50;;;;;;;30.13;17.77;;;;;;;16.16;75.28;91058.13;4952414;29;20492;-86
2021/07/20 07:32:16;;;;;;;30.40;16.83;;;;;;;16.24;76.26;91057.09;4936695;29;20071;-87
2021/07/20 07:34:41;;;;;;;29.98;17.50;;;;;;;16.39;75.97;91062.50;4917495;29;20110;-87
2021/07/20 07:37:07;;;;;;;30.85;18.52;;;;;;;16.46;76.05;91050.19;4917063;29;20023;-88
2021/07/20 07:39:33;;;;;;;32.50;16.42;;;;;;;16.53;74.71;91049.50;4901291;29;20027;-87
2021/07/20 07:41:59;;;;;;;31.75;18.25;;;;;;;16.82;76.06;91062.94;4901665;29;20035;-87
2021/07/20 07:44:25;;;;;;;32.55;17.73;;;;;;;16.64;74.71;91060.91;4920343;29;20030;-87
2021/07/20 07:46:53;;;;;;;30.67;18.02;;;;;;;16.61;74.51;91055.59;4951989;28;20027;-87
2021/07/20 07:49:21;;;;;;;29.65;16.92;;;;;;;16.66;73.12;91048.13;4953180;28;20034;-88
2021/07/20 07:51:48;;;;;;;27.15;15.93;;;;;;;16.65;72.12;91051.88;4966407;28;20118;-88
2021/07/20 07:54:13;;;;;;;31.40;16.27;;;;;;;16.83;72.35;91069.75;4951814;28;20109;-87
2021/07/20 07:56:41;;;;;;;23.88;15.13;;;;;;;16.90;70.18;91061.91;4952761;28;20031;-87
2021/07/20 07:59:12;;;;;;;28.10;14.43;;;;;;;16.99;67.82;91058.97;4952484;28;20031;-87
2021/07/20 08:01:46;;;;;;;26.42;14.52;;;;;;;16.98;70.41;91063.47;4936223;29;20122;-90
2021/07/20 08:04:13;;;;;;;29.48;17.05;;;;;;;16.77;70.88;91065.94;4937300;29;20560;-88
2021/07/20 08:06:38;;;;;;;26.42;15.13;;;;;;;16.77;69.48;91065.94;4952456;29;20027;-87
2021/07/20 08:09:04;;;;;;;24.13;14.07;;;;;;;16.92;67.93;91070.19;4952819;29;20125;-88
2021/07/20 08:11:30;;;;;;;25.40;14.13;;;;;;;17.07;68.11;91066.59;4936803;29;20407;-87
2021/07/20 08:13:58;;;;;;;22.75;14.32;;;;;;;17.25;69.09;91071.25;4952154;28;20023;-87
2021/07/20 08:16:24;;;;;;;25.30;15.30;;;;;;;17.40;68.59;91067.56;4952269;28;20027;-87
2021/07/20 08:18:50;;;;;;;27.85;16.58;;;;;;;17.20;69.50;91054.63;4952247;29;20081;-87
2021/07/20 08:21:16;;;;;;;25.10;15.35;;;;;;;17.51;67.82;91067.66;4963214;28;20031;-91
2021/07/20 08:23:42;;;;;;;28.85;15.10;;;;;;;17.57;65.72;91061.69;4992483;28;20026;-90
2021/07/20 08:26:18;;;;;;;24.65;14.88;;;;;;;17.49;64.18;91062.75;4948028;28;20094;-87
2021/07/20 08:28:47;;;;;;;25.73;12.70;;;;;;;17.50;61.20;91066.91;4951867;29;20051;-87
2021/07/20 08:31:13;;;;;;;25.42;15.40;;;;;;;17.48;64.00;91063.13;4936171;29;20042;-87
2021/07/20 08:33:39;;;;;;;26.35;15.02;;;;;;;17.57;63.91;91072.22;4938661;29;20499;-87
2021/07/20 08:36:08;;;;;;;28.77;16.38;;;;;;;17.73;65.59;91071.19;4937397;28;20026;-88
2021/07/20 08:38:35;;;;;;;25.02;14.98;;;;;;;17.64;61.71;91056.44;4967694;28;20483;-87
2021/07/20 08:41:13;;;;;;;27.23;16.55;;;;;;;17.82;67.23;91056.59;4951163;28;20054;-87
2021/07/20 08:43:56;;;;;;;26.73;15.48;;;;;;;17.93;66.84;91069.81;4967140;28;20026;-87
2021/07/20 08:46:34;;;;;;;31.80;17.52;;;;;;;18.05;61.02;91063.47;4951616;28;20514;-87
2021/07/20 08:49:02;;;;;;;29.50;16.65;;;;;;;18.15;57.73;91060.13;4952693;28;20035;-87
2021/07/20 08:52:04;;;;;;;27.80;16.83;;;;;;;18.32;62.82;91056.81;4967002;28;20046;-86
2021/07/20 08:54:45;;;;;;;25.75;15.57;;;;;;;18.44;57.45;91057.59;4952626;29;20024;-88
2021/07/20 08:57:12;;;;;;;29.30;15.23;;;;;;;18.35;54.00;91055.31;4951580;28;20042;-88
2021/07/20 08:59:41;;;;;;;26.92;16.05;;;;;;;18.42;54.03;91055.34;4951174;29;20027;-86
2021/07/20 09:02:09;;;;;;;29.95;16.40;;;;;;;18.52;57.80;91059.13;4951573;29;20030;-87
2021/07/20 09:04:41;;;;;;;35.30;17.88;;;;;;;18.71;57.86;91065.97;4952523;29;20031;-87
2021/07/20 09:07:11;;;;;;;34.13;18.83;;;;;;;18.58;58.01;91050.47;4935502;29;20476;-87
2021/07/20 09:09:40;;;;;;;29.77;17.10;;;;;;;18.85;59.65;91050.94;4935413;29;20509;-88
2021/07/20 09:12:20;;;;;;;29.08;16.77;;;;;;;18.93;57.90;91061.50;4937328;29;20038;-87
2021/07/20 09:14:50;;;;;;;33.28;18.70;;;;;;;18.81;55.72;91062.63;4955320;28;20057;-87
2021/07/20 09:17:54;;;;;;;31.40;18.23;;;;;;;19.02;56.33;91064.53;5085076;23;20052;-86
2021/07/20 09:20:26;;;;;;;34.60;18.98;;;;;;;19.27;60.09;91060.03;4987173;28;20094;-86
2021/07/20 09:23:18;;;;;;;34.50;19.33;;;;;;;19.20;56.74;91064.56;5008098;28;20022;-86
2021/07/20 09:26:06;;;;;;;35.72;18.73;;;;;;;19.14;56.61;91066.81;5020150;28;20017;-85
2021/07/20 09:28:46;;;;;;;33.30;19.42;;;;;;;19.36;57.76;91062.28;5059321;28;20025;-86
2021/07/20 09:31:31;;;;;;;36.22;19.17;;;;;;;19.37;56.46;91065.69;5038599;28;20026;-87
2021/07/20 09:34:20;;;;;;;36.60;20.17;;;;;;;19.64;60.59;91064.16;5013586;28;20537;-86
2021/07/20 09:37:06;;;;;;;34.67;19.23;;;;;;;19.90;59.75;91068.31;5014273;28;20056;-86
2021/07/20 09:39:56;;;;;;;32.97;20.05;;;;;;;20.15;59.05;91067.50;5013500;28;20049;-86
2021/07/20 09:42:55;;;;;;;34.00;20.73;;;;;;;20.21;54.67;91058.00;5041359;28;20117;-86
2021/07/20 09:45:24;;;;;;;37.47;21.08;;;;;;;19.92;53.33;91060.72;5032289;28;20057;-86
2021/07/20 09:47:59;;;;;;;36.47;20.88;;;;;;;20.12;55.97;91065.59;5007227;28;20061;-86
2021/07/20 09:50:26;;;;;;;39.08;21.45;;;;;;;20.08;54.49;91064.88;5040774;28;20064;-85
2021/07/20 09:53:09;;;;;;;30.58;19.38;;;;;;;20.42;55.47;91055.25;5032692;28;20025;-87
2021/07/20 09:55:53;;;;;;;36.53;21.17;;;;;;;20.42;54.62;91060.56;5022674;28;20026;-86
2021/07/20 09:58:43;;;;;;;35.60;21.08;;;;;;;20.44;53.23;91068.88;5043438;28;20033;-86
2021/07/20 10:01:32;;;;;;;36.20;21.30;;;;;;;20.32;51.51;91055.31;4996036;28;20116;-85
2021/07/20 10:04:11;;;;;;;34.67;20.38;;;;;;;20.55;52.53;91063.56;5011866;28;20105;-85
2021/07/20 10:06:55;;;;;;;33.47;20.45;;;;;;;20.68;54.52;91059.34;5016434;28;20028;-87
2021/07/20 10:09:25;;;;;;;34.92;20.20;;;;;;;20.65;53.40;91059.38;5034253;28;20025;-87
2021/07/20 10:11:53;;;;;;;36.75;20.90;;;;;;;20.81;50.88;91046.41;5016346;28;20079;-86
2021/07/20 10:14:24;;;;;;;32.40;20.63;;;;;;;21.00;52.39;91055.75;5033779;28;20030;-88
2021/07/20 10:16:54;;;;;;;36.42;21.50;;;;;;;21.27;53.55;91050.63;5032267;28;20108;-86
2021/07/20 10:19:37;;;;;;;36.10;21.23;;;;;;;21.48;52.08;91055.81;5015356;28;20029;-87
2021/07/20 10:22:04;;;;;;;39.80;23.52;;;;;;;21.52;44.46;91055.78;5016666;28;20024;-88
2021/07/20 10:24:31;;;;;;;37.45;22.60;;;;;;;21.51;43.95;91043.66;5014598;28;20413;-87
2021/07/20 10:27:44;;;;;;;39.72;22.38;;;;;;;21.74;46.88;91043.09;4997743;28;20141;-87
2021/07/20 10:30:12;;;;;;;36.53;20.90;;;;;;;21.87;47.11;91038.03;5047511;28;20443;-86
2021/07/20 10:33:02;;;;;;;37.33;21.92;;;;;;;21.70;45.12;91043.13;5014901;28;20026;-88
2021/07/20 10:35:34;;;;;;;32.47;19.88;;;;;;;21.66;45.33;91044.28;5032901;28;20029;-86
2021/07/20 10:37:59;;;;;;;32.33;20.55;;;;;;;21.45;45.80;91037.28;5019890;28;20029;-86
2021/07/20 10:40:25;;;;;;;41.67;22.05;;;;;;;21.41;48.67;91034.69;5017623;28;20033;-85
2021/07/20 10:42:59;;;;;;;37.05;20.90;;;;;;;21.48;47.90;91045.22;5018383;28;20057;-86
2021/07/20 10:45:32;;;;;;;36.25;21.50;;;;;;;21.51;46.80;91035.72;5033763;28;20492;-87
2021/07/20 10:48:22;;;;;;;36.80;21.17;;;;;;;21.21;43.68;91044.28;5014705;28;20036;-85
2021/07/20 10:50:55;;;;;;;31.58;19.83;;;;;;;21.55;44.90;91038.31;5015505;28;20119;-87
2021/07/20 10:53:34;;;;;;;34.20;20.17;;;;;;;21.53;44.22;91045.94;5032068;28;20026;-87
2021/07/20 10:56:06;;;;;;;32.95;19.67;;;;;;;21.31;43.31;91038.13;5039103;28;20048;-86
2021/07/20 10:58:54;;;;;;;34.97;20.50;;;;;;;21.33;45.92;91046.44;5021812;28;20099;-88
2021/07/20 11:01:46;;;;;;;33.97;20.58;;;;;;;21.55;46.90;91040.97;5037609;28;20025;-88
2021/07/20 11:04:21;;;;;;;37.08;20.77;;;;;;;21.80;46.04;91046.84;5024743;28;20565;-85
2021/07/20 11:06:47;;;;;;;33.92;19.52;;;;;;;21.55;44.65;91039.06;5006589;28;20034;-88
2021/07/20 11:09:20;;;;;;;34.00;19.48;;;;;;;21.61;46.70;91034.13;5034093;28;20056;-87
2021/07/20 11:11:55;;;;;;;34.05;19.63;;;;;;;21.91;46.56;91042.16;5006747;28;20025;-87
2021/07/20 11:14:22;;;;;;;;;;;;;;;21.88;47.88;91036.91;5036067;28;20029;-87
2021/07/20 11:16:50;;;;;;;34.05;19.13;;;;;;;21.98;46.74;91033.38;5033955;28;19913;-86
2021/07/20 11:19:17;;;;;;;35.72;21.63;;;;;;;21.94;48.97;91033.44;5028664;28;20138;-86
2021/07/20 11:21:48;;;;;;;36.30;20.65;;;;;;;22.00;48.11;91035.63;5038557;28;20048;-87
2021/07/20 11:24:18;;;;;;;36.75;20.33;;;;;;;22.08;50.43;91037.06;5043609;28;20031;-87
2021/07/20 11:26:45;;;;;;;34.97;19.73;;;;;;;21.96;50.39;91040.97;5027884;28;20033;-87
2021/07/20 11:29:17;;;;;;;32.78;20.70;;;;;;;22.06;49.34;91042.78;5045693;28;20060;-87
2021/07/20 11:31:46;;;;;;;34.80;19.83;;;;;;;21.92;49.37;91042.91;5031524;28;20036;-88
2021/07/20 11:34:22;;;;;;;35.85;20.58;;;;;;;22.09;47.70;91035.94;5045021;28;20021;-87
2021/07/20 11:36:51;;;;;;;34.80;20.88;;;;;;;21.87;49.22;91041.47;5010291;28;20029;-87
2021/07/20 11:39:23;;;;;;;37.03;22.00;;;;;;;21.96;50.71;91033.03;5022708;28;20104;-87
2021/07/20 11:42:07;;;;;;;35.83;21.37;;;;;;;21.76;50.07;91048.75;5030750;28;20085;-91
2021/07/20 11:44:53;;;;;;;35.47;20.80;;;;;;;21.65;49.52;91040.13;5057171;28;20301;-89
2021/07/20 11:47:35;;;;;;;33.63;20.52;;;;;;;21.79;48.62;91039.25;5080578;23;20091;-85
2021/07/20 11:50:14;;;;;;;36.25;20.33;;;;;;;21.76;49.75;91035.47;5022319;28;20026;-87
2021/07/20 11:52:50;;;;;;;32.92;20.20;;;;;;;21.96;48.62;91043.63;5021548;28;20022;-85
2021/07/20 11:55:37;;;;;;;36.67;21.00;;;;;;;21.60;49.38;91035.28;5022869;28;20017;-86
2021/07/20 11:58:23;;;;;;;35.13;20.42;;;;;;;21.79;50.41;91040.00;5020964;28;20421;-85